Terminal Aerodrome Forecast
Issued by NWS

Home | Current Version | Previous Version | Graphics & Text | Print | Product List | Glossary On
Versions: 1 2 3 4 5 6 7 8 9 10 11 12 13 14 15 16 17 18 19 20 21 22
000
FTUS41 KCLE 291757 AAA
TAFFDY
TAF AMD
KFDY 291757Z 2918/3018 06008KT P6SM SCT035
     FM300000 05003KT P6SM SCT250
      TEMPO 3009/3013 4SM BR=

USA.gov is the U.S. government's official web portal to all federal, state and local government web resources and services.